createdAt,value
2024-03-05T00:00:12.390Z,-34
2024-03-05T00:01:18.747Z,-35
2024-03-05T00:02:24.995Z,-36
2024-03-05T00:03:31.290Z,-35
2024-03-05T00:04:37.622Z,-34
2024-03-05T00:05:44.022Z,-36
2024-03-05T00:06:50.045Z,-35
2024-03-05T00:07:55.428Z,-34
2024-03-05T00:09:01.729Z,-34
2024-03-05T00:10:07.845Z,-35
2024-03-05T00:11:14.173Z,-35
2024-03-05T00:12:20.423Z,-35
2024-03-05T00:13:26.819Z,-35
2024-03-05T00:14:32.968Z,-35
2024-03-05T00:15:39.245Z,-35
2024-03-05T00:16:45.507Z,-34
2024-03-05T00:17:51.761Z,-35
2024-03-05T00:18:58.157Z,-34
2024-03-05T00:20:04.374Z,-34
2024-03-05T00:21:10.606Z,-34
2024-03-05T00:22:15.892Z,-36
2024-03-05T00:23:22.137Z,-35
2024-03-05T00:24:28.399Z,-34
2024-03-05T00:25:34.704Z,-33
2024-03-05T00:26:40.990Z,-35
2024-03-05T00:27:47.219Z,-34
2024-03-05T00:28:53.610Z,-37
2024-03-05T00:29:59.795Z,-34
2024-03-05T00:31:06.049Z,-34
2024-03-05T00:32:12.302Z,-35
2024-03-05T00:33:18.640Z,-34
2024-03-05T00:34:24.839Z,-34
2024-03-05T00:35:31.141Z,-37
2024-03-05T00:36:36.412Z,-34
2024-03-05T00:37:42.729Z,-35
2024-03-05T00:38:49.048Z,-36
2024-03-05T00:39:55.254Z,-34
2024-03-05T00:41:01.494Z,-34
2024-03-05T00:42:07.780Z,-33
2024-03-05T00:43:14.186Z,-34
2024-03-05T00:44:20.312Z,-35
2024-03-05T00:45:26.677Z,-36
2024-03-05T00:46:32.846Z,-35
2024-03-05T00:47:39.129Z,-34
2024-03-05T00:48:45.401Z,-35
2024-03-05T00:49:51.769Z,-34
2024-03-05T00:50:57.041Z,-35
2024-03-05T00:52:03.238Z,-37
2024-03-05T00:53:08.563Z,-36
2024-03-05T00:54:14.904Z,-36
2024-03-05T00:55:21.122Z,-34
2024-03-05T00:56:27.343Z,-35
2024-03-05T00:57:33.721Z,-34
2024-03-05T00:58:39.992Z,-34
2024-03-05T00:59:46.286Z,-34
2024-03-05T01:00:52.459Z,-35
2024-03-05T01:01:58.715Z,-36
2024-03-05T01:03:04.972Z,-35
2024-03-05T01:04:11.233Z,-34
2024-03-05T01:05:17.616Z,-36
2024-03-05T01:06:23.842Z,-35
2024-03-05T01:07:29.077Z,-31
2024-03-05T01:08:35.402Z,-34
2024-03-05T01:09:41.631Z,-33
2024-03-05T01:10:48.013Z,-37
2024-03-05T01:11:54.167Z,-35
2024-03-05T01:13:00.466Z,-34
2024-03-05T01:14:06.705Z,-34
2024-03-05T01:15:12.978Z,-34
2024-03-05T01:16:19.251Z,-35
2024-03-05T01:17:25.540Z,-34
2024-03-05T01:18:31.809Z,-34
2024-03-05T01:19:38.064Z,-34
2024-03-05T01:20:44.363Z,-35
2024-03-05T01:21:49.625Z,-36
2024-03-05T01:22:56.060Z,-34
2024-03-05T01:24:02.176Z,-34
2024-03-05T01:25:08.439Z,-34
2024-03-05T01:26:14.716Z,-34
2024-03-05T01:27:21.006Z,-34
2024-03-05T01:28:27.259Z,-35
2024-03-05T01:29:33.612Z,-34
2024-03-05T01:30:39.807Z,-34
2024-03-05T01:31:46.083Z,-32
2024-03-05T01:32:52.454Z,-34
2024-03-05T01:33:58.620Z,-34
2024-03-05T01:35:04.960Z,-34
2024-03-05T01:36:10.176Z,-34
2024-03-05T01:37:16.484Z,-36
2024-03-05T01:38:22.751Z,-34
2024-03-05T01:39:29.002Z,-34
2024-03-05T01:40:35.265Z,-35
2024-03-05T01:41:41.548Z,-34
2024-03-05T01:42:47.806Z,-34
2024-03-05T01:43:54.081Z,-36
2024-03-05T01:45:00.428Z,-34
2024-03-05T01:46:06.624Z,-34
2024-03-05T01:47:12.907Z,-34
2024-03-05T01:48:19.169Z,-35
2024-03-05T01:49:25.444Z,-34
2024-03-05T01:50:30.722Z,-35
2024-03-05T01:51:37.006Z,-35
2024-03-05T01:52:43.274Z,-34
2024-03-05T01:53:49.709Z,-35
2024-03-05T01:54:55.815Z,-34
2024-03-05T01:56:02.132Z,-34
2024-03-05T01:57:08.360Z,-34
2024-03-05T01:58:14.780Z,-34
2024-03-05T01:59:20.924Z,-34
2024-03-05T02:00:27.198Z,-33
2024-03-05T02:01:33.451Z,-34
2024-03-05T02:02:39.723Z,-34
2024-03-05T02:03:46.021Z,-34
2024-03-05T02:04:51.279Z,-34
2024-03-05T02:05:57.632Z,-34
2024-03-05T02:07:03.906Z,-35
2024-03-05T02:08:10.088Z,-35
2024-03-05T02:09:16.368Z,-34
2024-03-05T02:10:22.637Z,-34
2024-03-05T02:11:28.908Z,-35
2024-03-05T02:12:35.180Z,-34
2024-03-05T02:13:41.463Z,-34
2024-03-05T02:14:47.881Z,-34
2024-03-05T02:15:53.996Z,-34
2024-03-05T02:17:00.280Z,-34
2024-03-05T02:18:06.584Z,-32
2024-03-05T02:19:11.901Z,-34
2024-03-05T02:20:18.112Z,-31
2024-03-05T02:21:24.370Z,-34
2024-03-05T02:22:30.650Z,-34
2024-03-05T02:23:36.935Z,-34
2024-03-05T02:24:43.198Z,-33
2024-03-05T02:25:49.477Z,-34
2024-03-05T02:26:55.727Z,-34
2024-03-05T02:28:02.110Z,-34
2024-03-05T02:29:08.274Z,-34
2024-03-05T02:30:14.543Z,-34
2024-03-05T02:31:20.831Z,-34
2024-03-05T02:32:27.095Z,-34
2024-03-05T02:33:32.382Z,-34
2024-03-05T02:34:38.650Z,-34
2024-03-05T02:35:44.919Z,-34
2024-03-05T02:36:51.203Z,-34
2024-03-05T02:37:57.472Z,-34
2024-03-05T02:39:03.789Z,-35
2024-03-05T02:40:10.005Z,-33
2024-03-05T02:41:16.291Z,-35
2024-03-05T02:42:22.566Z,-33
2024-03-05T02:43:28.824Z,-34
2024-03-05T02:44:35.093Z,-35
2024-03-05T02:45:41.366Z,-34
2024-03-05T02:46:47.648Z,-33
2024-03-05T02:47:52.942Z,-34
2024-03-05T02:48:59.204Z,-36
2024-03-05T02:50:05.473Z,-34
2024-03-05T02:51:11.747Z,-34
2024-03-05T02:52:18.015Z,-34
2024-03-05T02:53:24.294Z,-34
2024-03-05T02:54:30.566Z,-34
2024-03-05T02:55:36.834Z,-33
2024-03-05T02:56:43.100Z,-35
2024-03-05T02:57:49.373Z,-34
2024-03-05T02:58:55.646Z,-35
2024-03-05T03:00:01.927Z,-34
2024-03-05T03:01:08.214Z,-34
2024-03-05T03:02:14.462Z,-31
2024-03-05T03:03:19.749Z,-32
2024-03-05T03:04:26.017Z,-34
2024-03-05T03:05:32.300Z,-35
2024-03-05T03:06:38.568Z,-35
2024-03-05T03:07:44.846Z,-34
2024-03-05T03:08:51.159Z,-34
2024-03-05T03:09:57.373Z,-34
2024-03-05T03:11:03.654Z,-34
2024-03-05T03:12:09.926Z,-34
2024-03-05T03:13:16.194Z,-34
2024-03-05T03:14:22.476Z,-35
2024-03-05T03:15:28.745Z,-34
2024-03-05T03:16:35.016Z,-35
2024-03-05T03:17:40.303Z,-31
2024-03-05T03:18:46.561Z,-34
2024-03-05T03:19:52.845Z,-34
2024-03-05T03:20:59.114Z,-34
2024-03-05T03:22:05.392Z,-34
2024-03-05T03:23:11.661Z,-34
2024-03-05T03:24:17.937Z,-34
2024-03-05T03:25:24.209Z,-34
2024-03-05T03:26:30.484Z,-33
2024-03-05T03:27:36.747Z,-32
2024-03-05T03:28:43.015Z,-32
2024-03-05T03:29:49.295Z,-34
2024-03-05T03:30:55.563Z,-34
2024-03-05T03:32:00.858Z,-37
2024-03-05T03:33:07.129Z,-34
2024-03-05T03:34:13.398Z,-34
2024-03-05T03:35:19.659Z,-35
2024-03-05T03:36:25.939Z,-34
2024-03-05T03:37:32.217Z,-32
2024-03-05T03:38:38.486Z,-34
2024-03-05T03:39:44.753Z,-34
2024-03-05T03:40:51.053Z,-34
2024-03-05T03:41:57.327Z,-33
2024-03-05T03:43:03.577Z,-34
2024-03-05T03:44:09.982Z,-34
2024-03-05T03:45:16.127Z,-34
2024-03-05T03:46:21.409Z,-34
2024-03-05T03:47:27.674Z,-33
2024-03-05T03:48:34.115Z,-34
2024-03-05T03:49:40.222Z,-37
2024-03-05T03:50:46.514Z,-35
2024-03-05T03:51:52.814Z,-37
2024-03-05T03:52:59.066Z,-35
2024-03-05T03:54:05.420Z,-34
2024-03-05T03:55:11.586Z,-34
2024-03-05T03:56:17.847Z,-34
2024-03-05T03:57:24.129Z,-34
2024-03-05T03:58:30.393Z,-34
2024-03-05T03:59:36.685Z,-34
2024-03-05T04:00:42.008Z,-34
2024-03-05T04:01:48.279Z,-35
2024-03-05T04:02:54.496Z,-35
2024-03-05T04:04:00.774Z,-34
2024-03-05T04:05:07.036Z,-33
2024-03-05T04:06:13.319Z,-34
2024-03-05T04:07:19.592Z,-35
2024-03-05T04:08:25.865Z,-34
2024-03-05T04:09:32.137Z,-34
2024-03-05T04:10:38.484Z,-34
2024-03-05T04:11:44.703Z,-34
2024-03-05T04:12:50.951Z,-34
2024-03-05T04:13:57.231Z,-34
2024-03-05T04:15:02.506Z,-34
2024-03-05T04:16:08.775Z,-34
2024-03-05T04:17:15.060Z,-33
2024-03-05T04:18:21.324Z,-31
2024-03-05T04:19:27.598Z,-31
2024-03-05T04:20:33.895Z,-35
2024-03-05T04:21:40.157Z,-34
2024-03-05T04:22:46.425Z,-35
2024-03-05T04:23:52.684Z,-34
2024-03-05T04:24:59.138Z,-34
2024-03-05T04:26:05.250Z,-34
2024-03-05T04:27:11.509Z,-35
2024-03-05T04:28:18.068Z,-34
2024-03-05T04:29:23.058Z,-34
2024-03-05T04:30:29.327Z,-35
2024-03-05T04:31:35.614Z,-34
2024-03-05T04:32:41.885Z,-34
2024-03-05T04:33:48.151Z,-34
2024-03-05T04:34:53.438Z,-34
2024-03-05T04:35:59.971Z,-37
2024-03-05T04:37:06.004Z,-35
2024-03-05T04:38:12.321Z,-34
2024-03-05T04:39:18.533Z,-35
2024-03-05T04:40:24.804Z,-34
2024-03-05T04:41:31.106Z,-32
2024-03-05T04:42:37.359Z,-34
2024-03-05T04:43:43.621Z,-34
2024-03-05T04:44:49.884Z,-34
2024-03-05T04:45:56.190Z,-34
2024-03-05T04:47:02.433Z,-33
2024-03-05T04:48:08.727Z,-33
2024-03-05T04:49:14.042Z,-34
2024-03-05T04:50:20.387Z,-34
2024-03-05T04:51:26.542Z,-36
2024-03-05T04:52:32.810Z,-34
2024-03-05T04:53:39.085Z,-34
2024-03-05T04:54:45.455Z,-33
2024-03-05T04:55:51.627Z,-33
2024-03-05T04:56:57.899Z,-34
2024-03-05T04:58:04.187Z,-34
2024-03-05T04:59:10.491Z,-34
2024-03-05T05:00:16.726Z,-34
2024-03-05T05:01:22.997Z,-34
2024-03-05T05:02:29.249Z,-34
2024-03-05T05:03:34.537Z,-34
2024-03-05T05:04:40.825Z,-34
2024-03-05T05:05:47.213Z,-34
2024-03-05T05:06:53.381Z,-34
2024-03-05T05:07:59.683Z,-33
2024-03-05T05:09:05.901Z,-34
2024-03-05T05:10:12.253Z,-34
2024-03-05T05:11:18.451Z,-34
2024-03-05T05:12:24.725Z,-34
2024-03-05T05:13:30.992Z,-34
2024-03-05T05:14:37.268Z,-34
2024-03-05T05:15:43.537Z,-34
2024-03-05T05:16:49.803Z,-33
2024-03-05T05:17:55.102Z,-35
2024-03-05T05:19:01.369Z,-34
2024-03-05T05:20:07.635Z,-34
2024-03-05T05:21:13.994Z,-35
2024-03-05T05:22:20.183Z,-34
2024-03-05T05:23:26.450Z,-34
2024-03-05T05:24:32.732Z,-34
2024-03-05T05:25:39.009Z,-34
2024-03-05T05:26:45.278Z,-34
2024-03-05T05:27:51.557Z,-33
2024-03-05T05:28:57.824Z,-34
2024-03-05T05:30:04.106Z,-34
2024-03-05T05:31:10.361Z,-34
2024-03-05T05:32:15.675Z,-35
2024-03-05T05:33:21.938Z,-34
2024-03-05T05:34:28.190Z,-33
2024-03-05T05:35:34.475Z,-34
2024-03-05T05:36:40.738Z,-35
2024-03-05T05:37:47.019Z,-34
2024-03-05T05:38:53.299Z,-34
2024-03-05T05:39:59.553Z,-34
2024-03-05T05:41:05.943Z,-34
2024-03-05T05:42:12.171Z,-33
2024-03-05T05:43:18.374Z,-34
2024-03-05T05:44:24.642Z,-33
2024-03-05T05:45:30.928Z,-32
2024-03-05T05:46:37.198Z,-34
2024-03-05T05:47:42.472Z,-35
2024-03-05T05:48:48.744Z,-33
2024-03-05T05:49:55.033Z,-34
2024-03-05T05:51:01.289Z,-34
2024-03-05T05:52:07.560Z,-34
2024-03-05T05:53:13.836Z,-33
2024-03-05T05:54:20.095Z,-33
2024-03-05T05:55:26.385Z,-33
2024-03-05T05:56:32.649Z,-34
2024-03-05T05:57:38.921Z,-35
2024-03-05T05:58:45.207Z,-32
2024-03-05T05:59:51.480Z,-34
2024-03-05T06:00:57.738Z,-35
2024-03-05T06:02:03.088Z,-34
2024-03-05T06:03:09.317Z,-34
2024-03-05T06:04:15.613Z,-34
2024-03-05T06:05:21.847Z,-34
2024-03-05T06:06:28.111Z,-34
2024-03-05T06:07:34.380Z,-34
2024-03-05T06:08:40.660Z,-34
2024-03-05T06:09:46.957Z,-34
2024-03-05T06:10:53.213Z,-35
2024-03-05T06:11:59.520Z,-35
2024-03-05T06:13:05.776Z,-35
2024-03-05T06:14:12.137Z,-35
2024-03-05T06:15:18.283Z,-35
2024-03-05T06:16:23.573Z,-35
2024-03-05T06:17:29.834Z,-35
2024-03-05T06:18:36.323Z,-35
2024-03-05T06:19:42.399Z,-34
2024-03-05T06:20:48.667Z,-36
2024-03-05T06:21:54.934Z,-37
2024-03-05T06:23:01.207Z,-35
2024-03-05T06:24:07.469Z,-36
2024-03-05T06:25:13.772Z,-35
2024-03-05T06:26:20.024Z,-34
2024-03-05T06:27:26.295Z,-34
2024-03-05T06:28:32.569Z,-36
2024-03-05T06:29:38.856Z,-34
2024-03-05T06:30:44.143Z,-34
2024-03-05T06:31:50.411Z,-34
2024-03-05T06:32:56.665Z,-35
2024-03-05T06:34:02.938Z,-37
2024-03-05T06:35:09.213Z,-36
2024-03-05T06:36:15.689Z,-37
2024-03-05T06:37:21.770Z,-34
2024-03-05T06:38:28.025Z,-34
2024-03-05T06:39:34.346Z,-37
2024-03-05T06:40:40.651Z,-35
2024-03-05T06:41:46.848Z,-35
2024-03-05T06:42:53.145Z,-35
2024-03-05T06:43:59.388Z,-34
2024-03-05T06:45:04.680Z,-35
2024-03-05T06:46:11.013Z,-34
2024-03-05T06:47:17.215Z,-34
2024-03-05T06:48:23.541Z,-34
2024-03-05T06:49:29.802Z,-35
2024-03-05T06:50:36.037Z,-36
2024-03-05T06:51:42.309Z,-34
2024-03-05T06:52:48.583Z,-35
2024-03-05T06:53:54.866Z,-35
2024-03-05T06:55:01.150Z,-34
2024-03-05T06:56:07.402Z,-34
2024-03-05T06:57:13.674Z,-36
2024-03-05T06:58:19.945Z,-34
2024-03-05T06:59:25.303Z,-34
2024-03-05T07:00:31.522Z,-34
2024-03-05T07:01:37.807Z,-35
2024-03-05T07:02:44.057Z,-34
2024-03-05T07:03:50.360Z,-36
2024-03-05T07:04:56.668Z,-34
2024-03-05T07:06:02.870Z,-34
2024-03-05T07:07:09.221Z,-34
2024-03-05T07:08:15.417Z,-34
2024-03-05T07:09:21.732Z,-34
2024-03-05T07:10:27.950Z,-33
2024-03-05T07:11:34.254Z,-34
2024-03-05T07:12:40.521Z,-34
2024-03-05T07:13:45.927Z,-34
2024-03-05T07:14:52.123Z,-34
2024-03-05T07:15:58.332Z,-34
2024-03-05T07:17:04.804Z,-34
2024-03-05T07:18:10.987Z,-34
2024-03-05T07:19:17.370Z,-34
2024-03-05T07:20:23.442Z,-34
2024-03-05T07:21:29.781Z,-33
2024-03-05T07:22:35.968Z,-33
2024-03-05T07:23:42.235Z,-34
2024-03-05T07:24:48.558Z,-33
2024-03-05T07:25:54.773Z,-34
2024-03-05T07:27:01.050Z,-34
2024-03-05T07:28:06.329Z,-34
2024-03-05T07:29:12.769Z,-34
2024-03-05T07:30:18.905Z,-34
2024-03-05T07:31:25.258Z,-34
2024-03-05T07:32:31.420Z,-33
2024-03-05T07:33:37.708Z,-32
2024-03-05T07:34:43.996Z,-34
2024-03-05T07:35:50.242Z,-31
2024-03-05T07:36:56.511Z,-33
2024-03-05T07:38:02.953Z,-32
2024-03-05T07:39:09.056Z,-33
2024-03-05T07:40:15.348Z,-32
2024-03-05T07:41:21.625Z,-33
2024-03-05T07:42:27.040Z,-32
2024-03-05T07:43:33.173Z,-31
2024-03-05T07:44:39.458Z,-32
2024-03-05T07:45:45.732Z,-32
2024-03-05T07:46:51.974Z,-34
2024-03-05T07:47:58.257Z,-32
2024-03-05T07:49:04.515Z,-33
2024-03-05T07:50:10.787Z,-33
2024-03-05T07:51:17.117Z,-33
2024-03-05T07:52:23.333Z,-32
2024-03-05T07:53:29.634Z,-32
2024-03-05T07:54:35.933Z,-31
2024-03-05T07:55:42.220Z,-31
2024-03-05T07:56:47.520Z,-32
2024-03-05T07:57:53.713Z,-32
2024-03-05T07:59:00.000Z,-33
2024-03-05T08:00:06.432Z,-31
2024-03-05T08:01:12.533Z,-32
2024-03-05T08:02:18.921Z,-31
2024-03-05T08:03:25.096Z,-32
2024-03-05T08:04:31.619Z,-32
2024-03-05T08:05:37.646Z,-34
2024-03-05T08:06:44.080Z,-31
2024-03-05T08:07:50.177Z,-32
2024-03-05T08:08:56.551Z,-31
2024-03-05T08:10:02.716Z,-31
2024-03-05T08:11:07.987Z,-32
2024-03-05T08:12:14.259Z,-32
2024-03-05T08:13:20.529Z,-32
2024-03-05T08:14:26.824Z,-33
2024-03-05T08:15:33.071Z,-31
2024-03-05T08:16:38.377Z,-31
2024-03-05T08:17:44.676Z,-31
2024-03-05T08:18:50.926Z,-36
2024-03-05T08:19:57.217Z,-32
2024-03-05T08:21:03.719Z,-33
2024-03-05T08:22:09.815Z,-31
2024-03-05T08:23:16.238Z,-32
2024-03-05T08:24:22.261Z,-31
2024-03-05T08:25:28.743Z,-34
2024-03-05T08:26:34.988Z,-31
2024-03-05T08:27:41.108Z,-37
2024-03-05T08:28:47.390Z,-33
2024-03-05T08:29:53.689Z,-33
2024-03-05T08:30:58.996Z,-33
2024-03-05T08:32:05.250Z,-31
2024-03-05T08:33:11.809Z,-31
2024-03-05T08:34:17.892Z,-33
2024-03-05T08:35:24.096Z,-35
2024-03-05T08:36:30.408Z,-34
2024-03-05T08:37:36.554Z,-33
2024-03-05T08:38:42.917Z,-31
2024-03-05T08:39:49.102Z,-31
2024-03-05T08:40:55.377Z,-31
2024-03-05T08:42:01.650Z,-32
2024-03-05T08:43:07.915Z,-32
2024-03-05T08:44:14.241Z,-32
2024-03-05T08:45:19.535Z,-34
2024-03-05T08:46:25.790Z,-32
2024-03-05T08:47:32.017Z,-32
2024-03-05T08:48:38.300Z,-33
2024-03-05T08:49:44.641Z,-32
2024-03-05T08:50:50.846Z,-34
2024-03-05T08:51:57.106Z,-32
2024-03-05T08:53:03.437Z,-33
2024-03-05T08:54:09.657Z,-32
2024-03-05T08:55:15.921Z,-33
2024-03-05T08:56:22.219Z,-33
2024-03-05T08:57:28.453Z,-32
2024-03-05T08:58:34.736Z,-33
2024-03-05T08:59:40.020Z,-28
2024-03-05T09:00:46.404Z,-32
2024-03-05T09:01:52.693Z,-31
2024-03-05T09:02:58.885Z,-29
2024-03-05T09:04:05.120Z,-31
2024-03-05T09:05:11.390Z,-30
2024-03-05T09:06:17.667Z,-30
2024-03-05T09:07:23.933Z,-29
2024-03-05T09:08:30.196Z,-30
2024-03-05T09:09:36.578Z,-31
2024-03-05T09:10:42.738Z,-29
2024-03-05T09:11:49.015Z,-29
2024-03-05T09:12:55.279Z,-30
2024-03-05T09:14:00.572Z,-28
2024-03-05T09:15:06.884Z,-30
2024-03-05T09:16:13.254Z,-28
2024-03-05T09:17:19.461Z,-30
2024-03-05T09:18:25.666Z,-27
2024-03-05T09:19:31.945Z,-28
2024-03-05T09:20:38.274Z,-27
2024-03-05T09:21:44.481Z,-28
2024-03-05T09:22:50.756Z,-28
2024-03-05T09:23:57.035Z,-28
2024-03-05T09:25:03.305Z,-27
2024-03-05T09:26:09.567Z,-26
2024-03-05T09:27:15.842Z,-26
2024-03-05T09:28:22.121Z,-27
2024-03-05T09:29:28.376Z,-28
2024-03-05T09:30:33.665Z,-26
2024-03-05T09:31:39.940Z,-26
2024-03-05T09:32:46.218Z,-25
2024-03-05T09:33:52.500Z,-26
2024-03-05T09:34:58.754Z,-26
2024-03-05T09:36:05.034Z,-28
2024-03-05T09:37:11.301Z,-26
2024-03-05T09:38:17.645Z,-26
2024-03-05T09:39:23.832Z,-28
2024-03-05T09:40:30.190Z,-24
2024-03-05T09:41:36.385Z,-23
2024-03-05T09:42:42.667Z,-23
2024-03-05T09:43:48.971Z,-22
2024-03-05T09:44:54.218Z,-23
2024-03-05T09:46:00.489Z,-23
2024-03-05T09:47:06.775Z,-25
2024-03-05T09:48:13.064Z,-24
2024-03-05T09:49:19.290Z,-26
2024-03-05T09:50:25.583Z,-24
2024-03-05T09:51:31.850Z,-24
2024-03-05T09:52:38.238Z,-24
2024-03-05T09:53:44.401Z,-24
2024-03-05T09:54:50.659Z,-23
2024-03-05T09:55:56.942Z,-23
2024-03-05T09:57:03.232Z,-24
2024-03-05T09:58:09.487Z,-24
2024-03-05T09:59:14.776Z,-23
2024-03-05T10:00:21.099Z,-23
2024-03-05T10:01:27.317Z,-23
2024-03-05T10:02:33.600Z,-22
2024-03-05T10:03:39.859Z,-23
2024-03-05T10:04:46.140Z,-24
2024-03-05T10:05:52.425Z,-23
2024-03-05T10:06:58.719Z,-23
2024-03-05T10:08:04.933Z,-23
2024-03-05T10:09:11.216Z,-22
2024-03-05T10:10:17.535Z,-19
2024-03-05T10:11:23.961Z,-21
2024-03-05T10:12:30.025Z,-21
2024-03-05T10:13:35.312Z,-21
2024-03-05T10:14:41.601Z,-22
2024-03-05T10:15:47.876Z,-23
2024-03-05T10:16:54.128Z,-22
2024-03-05T10:18:00.493Z,-21
2024-03-05T10:19:06.675Z,-21
2024-03-05T10:20:12.952Z,-20
2024-03-05T10:21:19.212Z,-21
2024-03-05T10:22:25.511Z,-20
2024-03-05T10:23:31.766Z,-19
2024-03-05T10:24:38.033Z,-19
2024-03-05T10:25:44.306Z,-20
2024-03-05T10:26:50.582Z,-19
2024-03-05T10:27:55.948Z,-21
2024-03-05T10:29:02.142Z,-22
2024-03-05T10:30:08.419Z,-22
2024-03-05T10:31:14.687Z,-24
2024-03-05T10:32:20.959Z,-23
2024-03-05T10:33:27.228Z,-24
2024-03-05T10:34:33.506Z,-25
2024-03-05T10:35:39.764Z,-25
2024-03-05T10:36:46.041Z,-24
2024-03-05T10:37:52.313Z,-24
2024-03-05T10:38:58.587Z,-21
2024-03-05T10:40:04.864Z,-23
2024-03-05T10:41:11.125Z,-25
2024-03-05T10:42:16.411Z,-23
2024-03-05T10:43:22.687Z,-23
2024-03-05T10:44:28.959Z,-22
2024-03-05T10:45:35.234Z,-21
2024-03-05T10:46:41.516Z,-23
2024-03-05T10:47:47.777Z,-21
2024-03-05T10:48:54.063Z,-21
2024-03-05T10:50:00.322Z,-25
2024-03-05T10:51:06.616Z,-24
2024-03-05T10:52:12.873Z,-23
2024-03-05T10:53:19.141Z,-22
2024-03-05T10:54:25.395Z,-22
2024-03-05T10:55:31.676Z,-25
2024-03-05T10:56:36.978Z,-24
2024-03-05T10:57:43.232Z,-22
2024-03-05T10:58:49.513Z,-23
2024-03-05T10:59:55.804Z,-23
2024-03-05T11:01:02.156Z,-25
2024-03-05T11:02:08.318Z,-25
2024-03-05T11:03:14.737Z,-27
2024-03-05T11:04:20.881Z,-27
2024-03-05T11:05:27.284Z,-23
2024-03-05T11:06:33.634Z,-25
2024-03-05T11:07:39.812Z,-27
2024-03-05T11:08:46.076Z,-27
2024-03-05T11:09:52.491Z,-27
2024-03-05T11:10:57.757Z,-28
2024-03-05T11:12:03.783Z,-27
2024-03-05T11:13:10.062Z,-26
2024-03-05T11:14:16.493Z,-28
2024-03-05T11:15:22.597Z,-27
2024-03-05T11:16:28.959Z,-28
2024-03-05T11:17:35.297Z,-27
2024-03-05T11:18:41.582Z,-27
2024-03-05T11:19:47.700Z,-29
2024-03-05T11:20:54.109Z,-29
2024-03-05T11:22:00.342Z,-28
2024-03-05T11:23:06.542Z,-29
2024-03-05T11:24:12.776Z,-30
2024-03-05T11:25:18.065Z,-29
2024-03-05T11:26:24.482Z,-28
2024-03-05T11:27:30.908Z,-30
2024-03-05T11:28:37.003Z,-29
2024-03-05T11:29:43.197Z,-30
2024-03-05T11:30:49.488Z,-31
2024-03-05T11:31:55.704Z,-33
2024-03-05T11:33:01.968Z,-34
2024-03-05T11:34:08.330Z,-35
2024-03-05T11:35:14.664Z,-37
2024-03-05T11:36:20.779Z,-37
2024-03-05T11:37:27.130Z,-37
2024-03-05T11:38:33.336Z,-37
2024-03-05T11:39:38.746Z,-39
2024-03-05T11:40:44.968Z,-37
2024-03-05T11:41:51.311Z,-37
2024-03-05T11:42:57.431Z,-37
2024-03-05T11:44:03.723Z,-34
2024-03-05T11:45:10.068Z,-36
2024-03-05T11:46:16.273Z,-37
2024-03-05T11:47:22.508Z,-37
2024-03-05T11:48:28.839Z,-37
2024-03-05T11:49:35.161Z,-37
2024-03-05T11:50:41.369Z,-38
2024-03-05T11:51:47.798Z,-37
2024-03-05T11:52:53.891Z,-37
2024-03-05T11:53:59.161Z,-36
2024-03-05T11:55:05.461Z,-37
2024-03-05T11:56:11.744Z,-36
2024-03-05T11:57:18.053Z,-37
2024-03-05T11:58:23.396Z,-35
2024-03-05T11:59:29.544Z,-35
2024-03-05T12:00:35.855Z,-39
2024-03-05T12:01:42.109Z,-36
2024-03-05T12:02:48.490Z,-37
2024-03-05T12:03:54.632Z,-35
2024-03-05T12:05:00.905Z,-37
2024-03-05T12:06:07.173Z,-35
2024-03-05T12:07:13.455Z,-36
2024-03-05T12:08:19.727Z,-36
2024-03-05T12:09:25.998Z,-37
2024-03-05T12:10:32.266Z,-37
2024-03-05T12:11:38.529Z,-37
2024-03-05T12:12:44.801Z,-37
2024-03-05T12:13:50.090Z,-37
2024-03-05T12:14:56.432Z,-37
2024-03-05T12:16:02.625Z,-37
2024-03-05T12:17:08.969Z,-36
2024-03-05T12:18:15.209Z,-37
2024-03-05T12:19:21.463Z,-37
2024-03-05T12:20:27.735Z,-37
2024-03-05T12:21:33.999Z,-38
2024-03-05T12:22:40.417Z,-36
2024-03-05T12:23:46.573Z,-35
2024-03-05T12:24:52.873Z,-35
2024-03-05T12:25:59.115Z,-34
2024-03-05T12:27:05.372Z,-34
2024-03-05T12:28:11.636Z,-34
2024-03-05T12:29:17.092Z,-35
2024-03-05T12:30:23.382Z,-32
2024-03-05T12:31:29.488Z,-34
2024-03-05T12:32:35.786Z,-34
2024-03-05T12:33:42.050Z,-35
2024-03-05T12:34:48.317Z,-34
2024-03-05T12:35:54.579Z,-34
2024-03-05T12:37:00.825Z,-33
2024-03-05T12:38:07.091Z,-34
2024-03-05T12:39:13.369Z,-33
2024-03-05T12:40:19.679Z,-34
2024-03-05T12:41:25.942Z,-33
2024-03-05T12:42:32.243Z,-34
2024-03-05T12:43:37.720Z,-31
2024-03-05T12:44:43.903Z,-33
2024-03-05T12:45:50.034Z,-32
2024-03-05T12:46:56.282Z,-32
2024-03-05T12:48:02.665Z,-32
2024-03-05T12:49:08.931Z,-33
2024-03-05T12:50:15.138Z,-33
2024-03-05T12:51:21.396Z,-31
2024-03-05T12:52:27.803Z,-30
2024-03-05T12:53:34.053Z,-34
2024-03-05T12:54:40.212Z,-31
2024-03-05T12:55:46.481Z,-31
2024-03-05T12:56:52.767Z,-31
2024-03-05T12:57:58.154Z,-31
2024-03-05T12:59:04.314Z,-33
2024-03-05T13:00:10.567Z,-33
2024-03-05T13:01:16.831Z,-32
2024-03-05T13:02:23.106Z,-33
2024-03-05T13:03:29.376Z,-33
2024-03-05T13:04:35.656Z,-30
2024-03-05T13:05:41.994Z,-33
2024-03-05T13:06:48.198Z,-31
2024-03-05T13:07:54.470Z,-31
2024-03-05T13:09:00.741Z,-31
2024-03-05T13:10:07.008Z,-31
2024-03-05T13:11:13.275Z,-30
2024-03-05T13:12:18.578Z,-31
2024-03-05T13:13:24.840Z,-31
2024-03-05T13:14:31.115Z,-32
2024-03-05T13:15:37.383Z,-30
2024-03-05T13:16:43.660Z,-30
2024-03-05T13:17:49.932Z,-30
2024-03-05T13:18:56.210Z,-31
2024-03-05T13:20:02.463Z,-31
2024-03-05T13:21:08.745Z,-33
2024-03-05T13:22:15.018Z,-31
2024-03-05T13:23:21.288Z,-29
2024-03-05T13:24:27.548Z,-33
2024-03-05T13:25:33.832Z,-32
2024-03-05T13:26:39.122Z,-31
2024-03-05T13:27:45.401Z,-31
2024-03-05T13:28:51.667Z,-29
2024-03-05T13:29:57.932Z,-31
2024-03-05T13:31:04.207Z,-30
2024-03-05T13:32:10.487Z,-31
2024-03-05T13:33:16.781Z,-30
2024-03-05T13:34:23.021Z,-30
2024-03-05T13:35:29.300Z,-30
2024-03-05T13:36:35.602Z,-30
2024-03-05T13:37:41.834Z,-31
2024-03-05T13:38:48.108Z,-30
2024-03-05T13:39:54.388Z,-31
2024-03-05T13:40:59.693Z,-31
2024-03-05T13:42:05.953Z,-28
2024-03-05T13:43:12.285Z,-31
2024-03-05T13:44:18.564Z,-31
2024-03-05T13:45:24.770Z,-30
2024-03-05T13:46:31.037Z,-32
2024-03-05T13:47:37.311Z,-31
2024-03-05T13:48:43.586Z,-29
2024-03-05T13:49:49.848Z,-31
2024-03-05T13:50:56.122Z,-31
2024-03-05T13:52:02.399Z,-28
2024-03-05T13:53:08.694Z,-31
2024-03-05T13:54:14.930Z,-29
2024-03-05T13:55:21.216Z,-30
2024-03-05T13:56:26.522Z,-30
2024-03-05T13:57:32.770Z,-33
2024-03-05T13:58:39.039Z,-31
2024-03-05T13:59:45.306Z,-30
2024-03-05T14:00:51.643Z,-30
2024-03-05T14:01:57.869Z,-28
2024-03-05T14:03:04.192Z,-29
2024-03-05T14:04:10.404Z,-28
2024-03-05T14:05:16.737Z,-28
2024-03-05T14:06:22.953Z,-26
2024-03-05T14:07:29.213Z,-28
2024-03-05T14:08:35.493Z,-28
2024-03-05T14:09:41.770Z,-27
2024-03-05T14:10:47.045Z,-28
2024-03-05T14:11:53.328Z,-29
2024-03-05T14:12:59.883Z,-28
2024-03-05T14:14:05.896Z,-28
2024-03-05T14:15:12.136Z,-28
2024-03-05T14:16:18.413Z,-28
2024-03-05T14:17:24.742Z,-28
2024-03-05T14:18:30.956Z,-28
2024-03-05T14:19:37.255Z,-28
2024-03-05T14:20:43.500Z,-31
2024-03-05T14:21:49.821Z,-28
2024-03-05T14:22:56.048Z,-29
2024-03-05T14:24:02.314Z,-29
2024-03-05T14:25:07.595Z,-29
2024-03-05T14:26:13.874Z,-31
2024-03-05T14:27:20.169Z,-29
2024-03-05T14:28:26.431Z,-29
2024-03-05T14:29:32.676Z,-30
2024-03-05T14:30:38.950Z,-28
2024-03-05T14:31:45.239Z,-28
2024-03-05T14:32:51.582Z,-30
2024-03-05T14:33:57.798Z,-29
2024-03-05T14:35:04.088Z,-29
2024-03-05T14:36:10.320Z,-28
2024-03-05T14:37:16.599Z,-29
2024-03-05T14:38:22.950Z,-28
2024-03-05T14:39:28.186Z,-28
2024-03-05T14:40:34.427Z,-28
2024-03-05T14:41:40.781Z,-28
2024-03-05T14:42:46.969Z,-29
2024-03-05T14:43:53.385Z,-28
2024-03-05T14:44:59.591Z,-30
2024-03-05T14:46:05.804Z,-28
2024-03-05T14:47:12.196Z,-28
2024-03-05T14:48:18.447Z,-29
2024-03-05T14:49:24.622Z,-30
2024-03-05T14:50:30.878Z,-28
2024-03-05T14:51:37.146Z,-28
2024-03-05T14:52:43.459Z,-29
2024-03-05T14:53:49.822Z,-27
2024-03-05T14:54:55.019Z,-28
2024-03-05T14:56:01.364Z,-30
2024-03-05T14:57:07.601Z,-27
2024-03-05T14:58:13.940Z,-27
2024-03-05T14:59:20.257Z,-28
2024-03-05T15:00:26.435Z,-28
2024-03-05T15:01:32.679Z,-27
2024-03-05T15:02:38.873Z,-26
2024-03-05T15:03:45.152Z,-28
2024-03-05T15:04:51.424Z,-26
2024-03-05T15:05:57.810Z,-28
2024-03-05T15:07:04.090Z,-28
2024-03-05T15:08:10.259Z,-28
2024-03-05T15:09:15.578Z,-28
2024-03-05T15:10:21.898Z,-28
2024-03-05T15:11:28.339Z,-30